createdAt,value
2023-05-18T00:00:35.101Z,16.72
2023-05-18T00:03:01.501Z,16.69
2023-05-18T00:05:28.015Z,16.74
2023-05-18T00:07:54.450Z,16.79
2023-05-18T00:10:20.853Z,16.84
2023-05-18T00:12:47.218Z,16.84
2023-05-18T00:15:13.529Z,16.81
2023-05-18T00:17:39.895Z,16.74
2023-05-18T00:20:06.273Z,16.66
2023-05-18T00:22:32.538Z,16.53
2023-05-18T00:24:58.820Z,16.46
2023-05-18T00:27:25.133Z,16.38
2023-05-18T00:29:51.423Z,16.36
2023-05-18T00:32:17.677Z,16.38
2023-05-18T00:34:43.980Z,16.44
2023-05-18T00:37:10.273Z,16.43
2023-05-18T00:39:36.534Z,16.35
2023-05-18T00:42:02.790Z,16.25
2023-05-18T00:44:29.133Z,16.15
2023-05-18T00:46:55.452Z,16.04
2023-05-18T00:49:21.747Z,15.91
2023-05-18T00:51:48.088Z,15.75
2023-05-18T00:54:14.377Z,15.67
2023-05-18T00:56:40.714Z,15.63
2023-05-18T00:59:07.008Z,15.64
2023-05-18T01:01:33.400Z,15.69
2023-05-18T01:03:59.721Z,15.70
2023-05-18T01:06:25.993Z,15.70
2023-05-18T01:08:52.284Z,15.66
2023-05-18T01:11:18.691Z,15.65
2023-05-18T01:13:45.004Z,15.65
2023-05-18T01:16:11.259Z,15.66
2023-05-18T01:18:37.576Z,15.65
2023-05-18T01:21:03.884Z,15.66
2023-05-18T01:23:30.167Z,15.66
2023-05-18T01:25:56.440Z,15.68
2023-05-18T01:28:22.706Z,15.69
2023-05-18T01:30:49.113Z,15.68
2023-05-18T01:33:15.383Z,15.65
2023-05-18T01:35:41.727Z,15.69
2023-05-18T01:38:08.073Z,15.69
2023-05-18T01:40:34.397Z,15.67
2023-05-18T01:43:00.659Z,15.66
2023-05-18T01:45:26.953Z,15.60
2023-05-18T01:47:53.401Z,15.56
2023-05-18T01:50:19.651Z,15.56
2023-05-18T01:52:45.954Z,15.55
2023-05-18T01:55:12.245Z,15.56
2023-05-18T01:57:38.577Z,15.59
2023-05-18T02:00:04.915Z,15.60
2023-05-18T02:02:31.266Z,15.60
2023-05-18T02:04:57.621Z,15.61
2023-05-18T02:07:23.924Z,15.62
2023-05-18T02:09:50.230Z,15.63
2023-05-18T02:12:16.509Z,15.60
2023-05-18T02:14:42.796Z,15.59
2023-05-18T02:17:09.143Z,15.60
2023-05-18T02:19:35.436Z,15.60
2023-05-18T02:22:01.790Z,15.64
2023-05-18T02:24:28.072Z,15.68
2023-05-18T02:26:54.331Z,15.69
2023-05-18T02:29:20.586Z,15.70
2023-05-18T02:31:46.933Z,15.72
2023-05-18T02:34:13.299Z,15.72
2023-05-18T02:36:39.566Z,15.74
2023-05-18T02:39:05.838Z,15.73
2023-05-18T02:41:32.154Z,15.75
2023-05-18T02:43:58.504Z,15.77
2023-05-18T02:46:24.934Z,15.79
2023-05-18T02:48:51.350Z,15.80
2023-05-18T02:51:17.683Z,15.83
2023-05-18T02:53:43.969Z,15.83
2023-05-18T02:56:10.270Z,15.85
2023-05-18T02:58:36.539Z,15.85
2023-05-18T03:01:02.892Z,15.86
2023-05-18T03:03:29.223Z,15.86
2023-05-18T03:05:55.552Z,15.86
2023-05-18T03:08:21.850Z,15.84
2023-05-18T03:10:48.150Z,15.82
2023-05-18T03:13:14.446Z,15.84
2023-05-18T03:15:40.755Z,15.82
2023-05-18T03:18:07.081Z,15.84
2023-05-18T03:20:33.442Z,15.81
2023-05-18T03:22:59.723Z,15.84
2023-05-18T03:25:26.035Z,15.83
2023-05-18T03:27:52.302Z,15.82
2023-05-18T03:30:18.598Z,15.82
2023-05-18T03:32:44.872Z,15.81
2023-05-18T03:35:11.188Z,15.80
2023-05-18T03:37:37.469Z,15.79
2023-05-18T03:40:03.705Z,15.82
2023-05-18T03:42:30.027Z,15.82
2023-05-18T03:44:56.355Z,15.84
2023-05-18T03:47:22.680Z,15.84
2023-05-18T03:49:48.919Z,15.88
2023-05-18T03:52:15.259Z,15.91
2023-05-18T03:54:41.536Z,15.93
2023-05-18T03:57:07.810Z,15.94
2023-05-18T03:59:34.064Z,15.96
2023-05-18T04:02:00.373Z,16.01
2023-05-18T04:04:26.761Z,16.03
2023-05-18T04:06:53.088Z,16.02
2023-05-18T04:09:19.411Z,16.05
2023-05-18T04:11:45.702Z,16.08
2023-05-18T04:14:11.949Z,16.10
2023-05-18T04:16:38.307Z,16.15
2023-05-18T04:19:07.894Z,16.15
2023-05-18T04:21:34.496Z,16.16
2023-05-18T04:24:00.782Z,16.18
2023-05-18T04:26:27.100Z,16.19
2023-05-18T04:28:53.407Z,16.19
2023-05-18T04:31:19.812Z,16.19
2023-05-18T04:33:46.081Z,16.17
2023-05-18T04:36:12.377Z,16.15
2023-05-18T04:38:38.619Z,16.11
2023-05-18T04:41:04.930Z,16.10
2023-05-18T04:43:31.236Z,16.05
2023-05-18T04:45:57.559Z,16.03
2023-05-18T04:48:23.934Z,15.99
2023-05-18T04:50:50.234Z,15.98
2023-05-18T04:53:16.555Z,15.97
2023-05-18T04:55:42.885Z,15.93
2023-05-18T04:58:09.176Z,15.90
2023-05-18T05:00:35.490Z,15.92
2023-05-18T05:03:01.877Z,15.98
2023-05-18T05:05:28.201Z,16.03
2023-05-18T05:07:54.609Z,16.06
2023-05-18T05:10:20.971Z,16.12
2023-05-18T05:12:49.305Z,16.19
2023-05-18T05:15:15.946Z,16.26
2023-05-18T05:17:42.315Z,16.36
2023-05-18T05:20:08.611Z,16.40
2023-05-18T05:22:34.950Z,16.54
2023-05-18T05:25:01.647Z,16.68
2023-05-18T05:27:28.534Z,16.79
2023-05-18T05:29:54.853Z,16.93
2023-05-18T05:32:21.177Z,17.05
2023-05-18T05:34:47.500Z,17.16
2023-05-18T05:37:13.777Z,17.24
2023-05-18T05:39:40.011Z,17.28
2023-05-18T05:42:06.283Z,17.32
2023-05-18T05:44:32.548Z,17.23
2023-05-18T05:46:58.855Z,17.29
2023-05-18T05:49:25.376Z,17.40
2023-05-18T05:51:51.641Z,17.36
2023-05-18T05:54:17.910Z,17.19
2023-05-18T05:56:44.242Z,17.11
2023-05-18T05:59:10.540Z,17.05
2023-05-18T06:01:36.858Z,17.02
2023-05-18T06:04:03.245Z,17.04
2023-05-18T06:06:30.747Z,17.08
2023-05-18T06:08:57.020Z,17.14
2023-05-18T06:11:23.378Z,17.23
2023-05-18T06:13:49.652Z,17.28
2023-05-18T06:16:15.972Z,17.33
2023-05-18T06:18:42.335Z,17.41
2023-05-18T06:21:08.627Z,17.44
2023-05-18T06:23:34.879Z,17.46
2023-05-18T06:26:01.148Z,17.50
2023-05-18T06:28:27.461Z,17.59
2023-05-18T06:30:53.763Z,17.61
2023-05-18T06:33:20.172Z,17.77
2023-05-18T06:35:46.513Z,17.97
2023-05-18T06:38:12.764Z,18.11
2023-05-18T06:40:39.036Z,18.19
2023-05-18T06:43:05.383Z,18.31
2023-05-18T06:45:32.602Z,18.46
2023-05-18T06:48:00.814Z,18.56
2023-05-18T06:50:27.192Z,18.61
2023-05-18T06:52:53.515Z,18.73
2023-05-18T06:55:19.844Z,18.86
2023-05-18T06:57:46.164Z,18.96
2023-05-18T07:00:12.485Z,19.08
2023-05-18T07:02:38.891Z,19.18
2023-05-18T07:05:05.203Z,19.21
2023-05-18T07:07:31.564Z,19.26
2023-05-18T07:09:57.863Z,19.20
2023-05-18T07:12:24.102Z,19.15
2023-05-18T07:14:50.458Z,19.23
2023-05-18T07:17:16.786Z,19.34
2023-05-18T07:19:43.083Z,19.27
2023-05-18T07:22:09.367Z,19.29
2023-05-18T07:24:35.689Z,19.44
2023-05-18T07:27:01.979Z,19.51
2023-05-18T07:29:28.254Z,19.59
2023-05-18T07:31:54.653Z,19.65
2023-05-18T07:34:21.172Z,19.76
2023-05-18T07:36:47.426Z,19.90
2023-05-18T07:39:13.793Z,20.05
2023-05-18T07:41:40.108Z,20.10
2023-05-18T07:44:06.462Z,20.16
2023-05-18T07:46:32.789Z,20.18
2023-05-18T07:48:59.176Z,20.20
2023-05-18T07:51:25.475Z,20.26
2023-05-18T07:53:51.777Z,20.29
2023-05-18T07:56:18.123Z,20.39
2023-05-18T07:58:44.446Z,20.56
2023-05-18T08:01:10.797Z,20.75
2023-05-18T08:03:37.231Z,20.91
2023-05-18T08:06:03.860Z,20.99
2023-05-18T08:08:30.156Z,21.04
2023-05-18T08:10:56.507Z,21.22
2023-05-18T08:13:22.774Z,21.10
2023-05-18T08:15:56.161Z,21.02
2023-05-18T08:18:25.876Z,21.04
2023-05-18T08:20:52.204Z,20.94
2023-05-18T08:23:18.574Z,21.02
2023-05-18T08:25:44.896Z,21.04
2023-05-18T08:28:11.281Z,21.00
2023-05-18T08:30:37.577Z,21.15
2023-05-18T08:33:03.941Z,21.25
2023-05-18T08:35:30.603Z,21.23
2023-05-18T08:37:57.206Z,21.33
2023-05-18T08:40:23.476Z,21.44
2023-05-18T08:42:50.752Z,21.58
2023-05-18T08:45:17.203Z,21.88
2023-05-18T08:47:43.541Z,22.06
2023-05-18T08:50:09.812Z,22.28
2023-05-18T08:52:36.310Z,22.37
2023-05-18T08:55:02.635Z,22.29
2023-05-18T08:57:28.913Z,22.20
2023-05-18T08:59:55.237Z,22.16
2023-05-18T09:02:21.563Z,22.20
2023-05-18T09:04:47.959Z,22.41
2023-05-18T09:07:14.282Z,22.69
2023-05-18T09:09:40.649Z,22.69
2023-05-18T09:12:06.943Z,22.73
2023-05-18T09:14:33.236Z,22.64
2023-05-18T09:16:59.585Z,22.42
2023-05-18T09:19:25.983Z,22.36
2023-05-18T09:21:52.250Z,22.42
2023-05-18T09:24:18.529Z,22.67
2023-05-18T09:26:44.820Z,22.76
2023-05-18T09:29:11.169Z,22.70
2023-05-18T09:31:37.595Z,22.61
2023-05-18T09:34:03.972Z,22.63
2023-05-18T09:36:30.288Z,22.73
2023-05-18T09:38:56.626Z,22.73
2023-05-18T09:41:22.928Z,22.85
2023-05-18T09:43:49.235Z,23.10
2023-05-18T09:46:15.594Z,23.29
2023-05-18T09:48:41.899Z,23.28
2023-05-18T09:51:08.266Z,23.34
2023-05-18T09:53:34.562Z,23.43
2023-05-18T09:56:00.935Z,23.59
2023-05-18T09:58:27.231Z,23.86
2023-05-18T10:00:53.567Z,24.09
2023-05-18T10:03:19.896Z,23.87
2023-05-18T10:05:46.261Z,23.78
2023-05-18T10:08:12.706Z,23.82
2023-05-18T10:10:39.001Z,23.93
2023-05-18T10:13:05.347Z,23.94
2023-05-18T10:15:31.830Z,24.01
2023-05-18T10:17:58.248Z,24.05
2023-05-18T10:20:24.588Z,24.16
2023-05-18T10:22:50.837Z,24.46
2023-05-18T10:25:17.163Z,24.37
2023-05-18T10:27:43.482Z,24.08
2023-05-18T10:30:09.761Z,23.98
2023-05-18T10:32:36.170Z,23.85
2023-05-18T10:35:02.496Z,24.10
2023-05-18T10:37:28.824Z,24.40
2023-05-18T10:39:55.287Z,24.71
2023-05-18T10:42:21.735Z,24.97
2023-05-18T10:44:48.104Z,25.14
2023-05-18T10:47:14.505Z,25.34
2023-05-18T10:49:40.915Z,25.49
2023-05-18T10:52:07.165Z,25.34
2023-05-18T10:54:33.528Z,25.22
2023-05-18T10:56:59.880Z,25.29
2023-05-18T10:59:26.135Z,25.07
2023-05-18T11:01:52.449Z,25.09
2023-05-18T11:04:18.730Z,25.15
2023-05-18T11:06:45.034Z,25.34
2023-05-18T11:09:11.363Z,25.38
2023-05-18T11:11:37.651Z,25.42
2023-05-18T11:14:03.973Z,25.41
2023-05-18T11:16:30.722Z,25.77
2023-05-18T11:18:57.145Z,26.18
2023-05-18T11:21:23.477Z,26.18
2023-05-18T11:23:49.777Z,26.05
2023-05-18T11:26:16.132Z,26.00
2023-05-18T11:28:42.404Z,26.24
2023-05-18T11:31:08.713Z,26.12
2023-05-18T11:33:35.024Z,26.26
2023-05-18T11:36:01.393Z,26.35
2023-05-18T11:38:27.682Z,26.37
2023-05-18T11:40:53.978Z,26.48
2023-05-18T11:43:20.279Z,26.54
2023-05-18T11:45:46.608Z,26.63
2023-05-18T11:48:13.001Z,26.53
2023-05-18T11:50:39.444Z,26.60
2023-05-18T11:53:05.897Z,26.42
2023-05-18T11:55:32.275Z,26.50
2023-05-18T11:57:58.661Z,26.44
2023-05-18T12:00:25.019Z,26.18
2023-05-18T12:02:51.351Z,26.16
2023-05-18T12:05:17.743Z,26.19
2023-05-18T12:07:44.165Z,25.87
2023-05-18T12:10:10.411Z,25.83
2023-05-18T12:12:36.658Z,25.88
2023-05-18T12:15:03.076Z,26.06
2023-05-18T12:17:29.478Z,25.98
2023-05-18T12:19:55.860Z,26.06
2023-05-18T12:22:22.162Z,26.06
2023-05-18T12:24:48.470Z,25.86
2023-05-18T12:27:14.837Z,25.57
2023-05-18T12:29:41.125Z,25.54
2023-05-18T12:32:07.424Z,25.33
2023-05-18T12:34:33.709Z,25.26
2023-05-18T12:36:59.997Z,25.19
2023-05-18T12:39:28.630Z,25.00
2023-05-18T12:41:55.336Z,25.45
2023-05-18T12:44:21.685Z,26.02
2023-05-18T12:46:48.053Z,26.73
2023-05-18T12:49:14.462Z,26.92
2023-05-18T12:51:40.727Z,27.19
2023-05-18T12:54:06.970Z,27.03
2023-05-18T12:56:33.331Z,26.65
2023-05-18T12:58:59.656Z,26.43
2023-05-18T13:01:25.940Z,26.42
2023-05-18T13:03:52.425Z,26.35
2023-05-18T13:06:18.845Z,26.15
2023-05-18T13:08:45.146Z,26.66
2023-05-18T13:11:14.746Z,27.17
2023-05-18T13:13:41.368Z,27.10
2023-05-18T13:16:07.809Z,27.15
2023-05-18T13:18:34.131Z,27.22
2023-05-18T13:21:00.382Z,27.71
2023-05-18T13:23:26.740Z,27.59
2023-05-18T13:25:53.022Z,27.87
2023-05-18T13:28:19.366Z,28.22
2023-05-18T13:30:45.685Z,28.29
2023-05-18T13:33:12.050Z,27.80
2023-05-18T13:35:38.548Z,27.88
2023-05-18T13:38:04.828Z,28.05
2023-05-18T13:40:31.091Z,27.48
2023-05-18T13:42:57.363Z,27.63
2023-05-18T13:45:23.685Z,27.58
2023-05-18T13:47:50.074Z,26.75
2023-05-18T13:50:16.487Z,26.05
2023-05-18T13:52:42.834Z,25.75
2023-05-18T13:55:10.594Z,25.61
2023-05-18T13:57:38.237Z,25.40
2023-05-18T14:00:04.587Z,25.13
2023-05-18T14:02:30.985Z,24.95
2023-05-18T14:04:57.332Z,24.82
2023-05-18T14:07:23.629Z,24.86
2023-05-18T14:09:49.885Z,24.78
2023-05-18T14:12:16.326Z,24.70
2023-05-18T14:14:42.681Z,24.76
2023-05-18T14:17:11.262Z,24.76
2023-05-18T14:19:37.962Z,24.82
2023-05-18T14:22:04.235Z,24.84
2023-05-18T14:24:30.555Z,24.58
2023-05-18T14:26:56.854Z,24.46
2023-05-18T14:29:23.161Z,24.19
2023-05-18T14:31:49.464Z,23.94
2023-05-18T14:34:15.760Z,23.81
2023-05-18T14:36:42.103Z,23.67
2023-05-18T14:39:08.351Z,23.52
2023-05-18T14:41:34.633Z,23.37
2023-05-18T14:44:00.872Z,23.40
2023-05-18T14:46:27.159Z,23.42
2023-05-18T14:48:53.480Z,23.36
2023-05-18T14:51:19.799Z,23.31
2023-05-18T14:53:46.107Z,23.25
2023-05-18T14:56:12.365Z,23.22
2023-05-18T14:58:38.630Z,23.21
2023-05-18T15:01:04.903Z,23.08
2023-05-18T15:03:31.339Z,22.99
2023-05-18T15:05:57.705Z,22.86
2023-05-18T15:08:24.028Z,22.87
2023-05-18T15:10:50.257Z,22.84
2023-05-18T15:13:16.527Z,22.83
2023-05-18T15:15:42.819Z,22.87
2023-05-18T15:18:09.187Z,22.88
2023-05-18T15:20:35.490Z,22.92
2023-05-18T15:23:01.769Z,22.92
2023-05-18T15:25:28.009Z,22.97
2023-05-18T15:27:54.266Z,22.97
2023-05-18T15:30:20.485Z,22.95
2023-05-18T15:32:46.841Z,22.88
2023-05-18T15:35:13.183Z,22.79
2023-05-18T15:37:39.449Z,22.63
2023-05-18T15:40:05.762Z,22.59
2023-05-18T15:42:32.089Z,22.50
2023-05-18T15:44:58.364Z,22.48
2023-05-18T15:47:24.737Z,22.51
2023-05-18T15:49:51.154Z,22.47
2023-05-18T15:52:17.497Z,22.50
2023-05-18T15:54:43.803Z,22.31
2023-05-18T15:57:10.128Z,22.15
2023-05-18T15:59:36.444Z,22.09
2023-05-18T16:02:02.709Z,22.02
2023-05-18T16:04:29.012Z,21.97
2023-05-18T16:06:55.292Z,21.97
2023-05-18T16:09:21.589Z,21.89
2023-05-18T16:11:47.894Z,21.74
2023-05-18T16:14:14.127Z,21.69
2023-05-18T16:16:40.433Z,21.76
2023-05-18T16:19:06.732Z,21.79
2023-05-18T16:21:33.060Z,21.79
2023-05-18T16:23:59.659Z,21.83
2023-05-18T16:26:26.394Z,21.85
2023-05-18T16:28:52.819Z,21.75
2023-05-18T16:31:19.266Z,21.65
2023-05-18T16:33:45.566Z,21.43
2023-05-18T16:36:11.969Z,21.32
2023-05-18T16:38:38.243Z,21.27
2023-05-18T16:41:04.636Z,21.20
2023-05-18T16:43:30.970Z,21.16
2023-05-18T16:45:57.248Z,21.17
2023-05-18T16:48:23.509Z,21.17
2023-05-18T16:50:49.719Z,21.12
2023-05-18T16:53:16.015Z,21.06
2023-05-18T16:55:42.330Z,21.06
2023-05-18T16:58:08.636Z,21.07
2023-05-18T17:00:34.910Z,21.06
2023-05-18T17:03:01.329Z,21.09
2023-05-18T17:05:27.681Z,21.10
2023-05-18T17:07:53.965Z,21.15
2023-05-18T17:10:20.313Z,21.19
2023-05-18T17:12:46.584Z,21.20
2023-05-18T17:15:12.873Z,21.24
2023-05-18T17:17:41.181Z,21.23
2023-05-18T17:20:08.265Z,21.21
2023-05-18T17:22:34.619Z,21.15
2023-05-18T17:25:00.946Z,21.14
2023-05-18T17:27:27.293Z,21.17
2023-05-18T17:29:53.565Z,21.17
2023-05-18T17:32:19.888Z,21.11
2023-05-18T17:34:46.168Z,21.07
2023-05-18T17:37:12.512Z,21.08
2023-05-18T17:39:38.876Z,21.04
2023-05-18T17:42:05.171Z,21.03
2023-05-18T17:44:31.446Z,20.98
2023-05-18T17:46:57.836Z,20.93
2023-05-18T17:49:24.199Z,20.93
2023-05-18T17:51:50.483Z,20.94
2023-05-18T17:54:16.840Z,20.88
2023-05-18T17:56:43.150Z,20.84
2023-05-18T17:59:09.551Z,20.84
2023-05-18T18:01:35.897Z,20.82
2023-05-18T18:04:02.325Z,20.83
2023-05-18T18:06:28.664Z,20.83
2023-05-18T18:08:54.939Z,20.87
2023-05-18T18:11:21.298Z,20.84
2023-05-18T18:13:47.631Z,20.82
2023-05-18T18:16:13.928Z,20.80
2023-05-18T18:18:40.223Z,20.79
2023-05-18T18:21:06.563Z,20.70
2023-05-18T18:23:32.888Z,20.58
2023-05-18T18:25:59.175Z,20.52
2023-05-18T18:28:25.434Z,20.47
2023-05-18T18:30:51.730Z,20.38
2023-05-18T18:33:18.035Z,20.31
2023-05-18T18:35:44.379Z,20.28
2023-05-18T18:38:10.724Z,20.20
2023-05-18T18:40:36.964Z,20.24
2023-05-18T18:43:03.295Z,20.22
2023-05-18T18:45:29.609Z,20.15
2023-05-18T18:47:56.040Z,20.06
2023-05-18T18:50:22.411Z,19.95
2023-05-18T18:52:48.801Z,19.89
2023-05-18T18:55:15.140Z,19.75
2023-05-18T18:57:41.398Z,19.60
2023-05-18T19:00:07.668Z,19.40
2023-05-18T19:02:34.005Z,19.20
2023-05-18T19:05:00.469Z,19.05
2023-05-18T19:07:26.886Z,18.92
2023-05-18T19:09:53.297Z,18.74
2023-05-18T19:12:19.624Z,18.59
2023-05-18T19:14:45.987Z,18.42
2023-05-18T19:17:12.256Z,18.30
2023-05-18T19:19:38.696Z,18.18
2023-05-18T19:22:04.991Z,18.09
2023-05-18T19:24:31.344Z,18.04
2023-05-18T19:26:57.728Z,17.94
2023-05-18T19:29:24.033Z,17.89
2023-05-18T19:31:50.394Z,17.94
2023-05-18T19:34:16.744Z,17.89
2023-05-18T19:36:43.099Z,17.92
2023-05-18T19:39:09.332Z,17.96
2023-05-18T19:41:35.632Z,17.97
2023-05-18T19:44:01.962Z,17.92
2023-05-18T19:46:28.426Z,17.88
2023-05-18T19:48:56.438Z,17.86
2023-05-18T19:51:22.981Z,17.80
2023-05-18T19:53:49.263Z,17.78
2023-05-18T19:56:15.609Z,17.79
2023-05-18T19:58:41.975Z,17.71
2023-05-18T20:01:08.317Z,17.66
2023-05-18T20:03:34.782Z,17.62
2023-05-18T20:06:01.304Z,17.56
2023-05-18T20:08:27.651Z,17.52
2023-05-18T20:10:54.028Z,17.48
2023-05-18T20:13:20.311Z,17.43
2023-05-18T20:15:46.616Z,17.35
2023-05-18T20:18:13.263Z,17.31
2023-05-18T20:20:39.588Z,17.25
2023-05-18T20:23:05.886Z,17.22
2023-05-18T20:25:32.187Z,17.16
2023-05-18T20:27:58.412Z,17.13
2023-05-18T20:30:24.629Z,17.11
2023-05-18T20:32:50.974Z,17.07
2023-05-18T20:35:17.271Z,17.07
2023-05-18T20:37:43.530Z,17.06
2023-05-18T20:40:09.767Z,17.07
2023-05-18T20:42:36.015Z,16.98
2023-05-18T20:45:02.738Z,16.87
2023-05-18T20:47:29.054Z,16.81
2023-05-18T20:49:55.392Z,16.78
2023-05-18T20:52:21.967Z,16.77
2023-05-18T20:54:48.210Z,16.71
2023-05-18T20:57:14.675Z,16.67
2023-05-18T20:59:41.015Z,16.70
2023-05-18T21:02:07.476Z,16.64
2023-05-18T21:04:33.883Z,16.68
2023-05-18T21:07:00.296Z,16.68
2023-05-18T21:09:26.648Z,16.68
2023-05-18T21:11:53.014Z,16.67
2023-05-18T21:14:19.405Z,16.71
2023-05-18T21:16:45.813Z,16.76
2023-05-18T21:19:12.189Z,16.79
2023-05-18T21:21:38.491Z,16.80
2023-05-18T21:24:04.735Z,16.85
2023-05-18T21:26:31.102Z,16.84
2023-05-18T21:28:57.458Z,16.83
2023-05-18T21:31:23.917Z,16.85
2023-05-18T21:33:50.240Z,16.84
2023-05-18T21:36:16.604Z,16.89
2023-05-18T21:38:42.897Z,17.00
2023-05-18T21:41:09.223Z,17.01
2023-05-18T21:43:35.474Z,16.94
2023-05-18T21:46:01.818Z,16.90
2023-05-18T21:48:28.099Z,16.89
2023-05-18T21:50:54.446Z,16.85
2023-05-18T21:53:20.771Z,16.91
2023-05-18T21:55:47.163Z,16.92
2023-05-18T21:58:13.534Z,16.95
2023-05-18T22:00:39.857Z,16.96
2023-05-18T22:03:06.278Z,17.01
2023-05-18T22:05:32.742Z,17.06
2023-05-18T22:07:59.213Z,17.00
2023-05-18T22:10:25.608Z,17.02
2023-05-18T22:12:51.916Z,17.04
2023-05-18T22:15:18.227Z,16.99
2023-05-18T22:17:44.609Z,16.93
2023-05-18T22:20:11.023Z,16.84
2023-05-18T22:22:37.354Z,16.80
2023-05-18T22:25:03.603Z,16.69
2023-05-18T22:27:29.850Z,16.77
2023-05-18T22:29:56.135Z,16.84
2023-05-18T22:32:22.721Z,16.87
2023-05-18T22:34:49.168Z,16.85
2023-05-18T22:37:15.480Z,16.87
2023-05-18T22:39:41.785Z,16.84
2023-05-18T22:42:08.089Z,16.78
2023-05-18T22:44:34.410Z,16.73
2023-05-18T22:47:00.700Z,16.76
2023-05-18T22:49:27.035Z,16.74
2023-05-18T22:51:53.359Z,16.74
2023-05-18T22:54:19.644Z,16.72
2023-05-18T22:56:45.978Z,16.73
2023-05-18T22:59:12.328Z,16.74
2023-05-18T23:01:38.708Z,16.66
2023-05-18T23:04:05.107Z,16.64
2023-05-18T23:06:31.542Z,16.66
2023-05-18T23:08:57.831Z,16.68
2023-05-18T23:11:24.105Z,16.66
2023-05-18T23:13:50.411Z,16.61
2023-05-18T23:16:16.752Z,16.58
2023-05-18T23:18:43.097Z,16.56
2023-05-18T23:21:09.363Z,16.54
2023-05-18T23:23:35.692Z,16.50
2023-05-18T23:26:01.992Z,16.48
2023-05-18T23:28:28.307Z,16.43
2023-05-18T23:30:54.593Z,16.44
2023-05-18T23:33:21.020Z,16.40
2023-05-18T23:35:47.338Z,16.34
2023-05-18T23:38:13.640Z,16.25
2023-05-18T23:40:39.887Z,16.19
2023-05-18T23:43:06.105Z,16.13
2023-05-18T23:45:32.401Z,16.07
2023-05-18T23:47:58.684Z,16.06
2023-05-18T23:50:25.009Z,16.00
2023-05-18T23:52:51.287Z,15.96
2023-05-18T23:55:17.554Z,15.94
2023-05-18T23:57:43.848Z,15.90
